sensor_id;sensor_type;location;lat;lon;timestamp;temperature;humidity
20504;DHT22;10410;51.046;6.980;2022-08-19T00:05:04;19.40;99.90
20504;DHT22;10410;51.046;6.980;2022-08-19T00:12:05;19.30;99.90
20504;DHT22;10410;51.046;6.980;2022-08-19T00:19:06;19.30;99.90
20504;DHT22;10410;51.046;6.980;2022-08-19T00:26:07;19.20;99.90
20504;DHT22;10410;51.046;6.980;2022-08-19T00:33:08;19.00;99.90
20504;DHT22;10410;51.046;6.980;2022-08-19T00:40:10;19.00;99.90
20504;DHT22;10410;51.046;6.980;2022-08-19T00:47:12;18.90;99.90
20504;DHT22;10410;51.046;6.980;2022-08-19T00:54:15;18.90;99.90
20504;DHT22;10410;51.046;6.980;2022-08-19T01:01:15;18.70;99.90
20504;DHT22;10410;51.046;6.980;2022-08-19T01:08:18;18.70;99.90
20504;DHT22;10410;51.046;6.980;2022-08-19T01:15:23;18.50;99.90
20504;DHT22;10410;51.046;6.980;2022-08-19T01:23:10;18.40;99.90
20504;DHT22;10410;51.046;6.980;2022-08-19T01:29:52;18.40;99.90
20504;DHT22;10410;51.046;6.980;2022-08-19T01:36:53;18.30;99.90
20504;DHT22;10410;51.046;6.980;2022-08-19T01:43:53;18.20;99.90
20504;DHT22;10410;51.046;6.980;2022-08-19T01:51:14;18.10;99.90
20504;DHT22;10410;51.046;6.980;2022-08-19T01:58:19;18.10;99.90
20504;DHT22;10410;51.046;6.980;2022-08-19T02:05:21;18.00;99.90
20504;DHT22;10410;51.046;6.980;2022-08-19T02:12:21;17.80;99.90
20504;DHT22;10410;51.046;6.980;2022-08-19T02:19:22;17.70;99.90
20504;DHT22;10410;51.046;6.980;2022-08-19T02:26:22;17.70;99.90
20504;DHT22;10410;51.046;6.980;2022-08-19T02:33:23;17.70;99.90
20504;DHT22;10410;51.046;6.980;2022-08-19T02:40:24;17.60;99.90
20504;DHT22;10410;51.046;6.980;2022-08-19T02:47:24;17.60;99.90
20504;DHT22;10410;51.046;6.980;2022-08-19T02:54:25;17.60;99.90
20504;DHT22;10410;51.046;6.980;2022-08-19T03:01:28;17.60;99.90
20504;DHT22;10410;51.046;6.980;2022-08-19T03:08:29;17.50;99.90
20504;DHT22;10410;51.046;6.980;2022-08-19T03:15:30;17.50;99.90
20504;DHT22;10410;51.046;6.980;2022-08-19T03:22:30;17.40;99.90
20504;DHT22;10410;51.046;6.980;2022-08-19T03:29:32;17.40;99.90
20504;DHT22;10410;51.046;6.980;2022-08-19T03:36:42;17.30;99.90
20504;DHT22;10410;51.046;6.980;2022-08-19T03:43:43;17.20;99.90
20504;DHT22;10410;51.046;6.980;2022-08-19T03:50:44;17.20;99.90
20504;DHT22;10410;51.046;6.980;2022-08-19T03:57:44;17.10;99.90
20504;DHT22;10410;51.046;6.980;2022-08-19T04:04:45;17.10;99.90
20504;DHT22;10410;51.046;6.980;2022-08-19T04:11:49;17.10;99.90
20504;DHT22;10410;51.046;6.980;2022-08-19T04:18:49;17.10;99.90
20504;DHT22;10410;51.046;6.980;2022-08-19T04:25:50;17.00;99.90
20504;DHT22;10410;51.046;6.980;2022-08-19T04:32:50;17.00;99.90
20504;DHT22;10410;51.046;6.980;2022-08-19T04:39:51;17.00;99.90
20504;DHT22;10410;51.046;6.980;2022-08-19T04:47:10;17.10;99.90
20504;DHT22;10410;51.046;6.980;2022-08-19T04:54:13;17.20;99.90
20504;DHT22;10410;51.046;6.980;2022-08-19T05:01:26;17.20;99.90
20504;DHT22;10410;51.046;6.980;2022-08-19T05:08:26;17.40;99.90
20504;DHT22;10410;51.046;6.980;2022-08-19T05:15:31;17.50;99.90
20504;DHT22;10410;51.046;6.980;2022-08-19T05:22:31;17.60;99.90
20504;DHT22;10410;51.046;6.980;2022-08-19T05:29:33;17.70;99.90
20504;DHT22;10410;51.046;6.980;2022-08-19T05:36:42;17.70;99.90
20504;DHT22;10410;51.046;6.980;2022-08-19T05:43:43;17.70;99.90
20504;DHT22;10410;51.046;6.980;2022-08-19T05:50:44;17.80;99.90
20504;DHT22;10410;51.046;6.980;2022-08-19T05:57:45;17.80;99.90
20504;DHT22;10410;51.046;6.980;2022-08-19T06:04:46;17.90;99.90
20504;DHT22;10410;51.046;6.980;2022-08-19T06:11:49;18.00;99.90
20504;DHT22;10410;51.046;6.980;2022-08-19T06:18:56;18.00;99.90
20504;DHT22;10410;51.046;6.980;2022-08-19T06:25:57;18.10;99.90
20504;DHT22;10410;51.046;6.980;2022-08-19T06:32:57;18.20;99.90
20504;DHT22;10410;51.046;6.980;2022-08-19T06:39:58;18.30;99.90
20504;DHT22;10410;51.046;6.980;2022-08-19T06:47:00;18.50;99.90
20504;DHT22;10410;51.046;6.980;2022-08-19T06:54:09;18.70;99.90
20504;DHT22;10410;51.046;6.980;2022-08-19T07:01:20;18.90;99.90
20504;DHT22;10410;51.046;6.980;2022-08-19T07:08:20;19.00;99.90
20504;DHT22;10410;51.046;6.980;2022-08-19T07:15:20;19.00;99.90
20504;DHT22;10410;51.046;6.980;2022-08-19T07:22:21;19.10;99.90
20504;DHT22;10410;51.046;6.980;2022-08-19T07:29:25;19.20;99.90
20504;DHT22;10410;51.046;6.980;2022-08-19T07:36:28;19.30;99.90
20504;DHT22;10410;51.046;6.980;2022-08-19T07:43:32;19.40;99.90
20504;DHT22;10410;51.046;6.980;2022-08-19T07:50:34;19.60;99.90
20504;DHT22;10410;51.046;6.980;2022-08-19T07:57:34;19.60;99.90
20504;DHT22;10410;51.046;6.980;2022-08-19T08:04:35;19.70;99.90
20504;DHT22;10410;51.046;6.980;2022-08-19T08:11:59;19.70;99.90
20504;DHT22;10410;51.046;6.980;2022-08-19T08:19:08;19.80;99.90
20504;DHT22;10410;51.046;6.980;2022-08-19T08:26:25;19.90;99.90
20504;DHT22;10410;51.046;6.980;2022-08-19T08:33:28;20.00;99.90
20504;DHT22;10410;51.046;6.980;2022-08-19T08:40:45;20.30;99.90
20504;DHT22;10410;51.046;6.980;2022-08-19T08:47:50;20.50;99.90
20504;DHT22;10410;51.046;6.980;2022-08-19T08:54:55;20.80;99.90
20504;DHT22;10410;51.046;6.980;2022-08-19T09:01:57;21.10;99.90
20504;DHT22;10410;51.046;6.980;2022-08-19T09:09:14;21.40;99.90
20504;DHT22;10410;51.046;6.980;2022-08-19T09:16:19;21.80;99.90
20504;DHT22;10410;51.046;6.980;2022-08-19T09:23:27;22.20;99.90
20504;DHT22;10410;51.046;6.980;2022-08-19T09:30:29;22.30;99.90
20504;DHT22;10410;51.046;6.980;2022-08-19T09:37:30;22.50;99.90
20504;DHT22;10410;51.046;6.980;2022-08-19T09:44:32;22.50;99.90
20504;DHT22;10410;51.046;6.980;2022-08-19T09:51:33;22.60;99.90
20504;DHT22;10410;51.046;6.980;2022-08-19T09:58:35;22.80;99.90
20504;DHT22;10410;51.046;6.980;2022-08-19T10:05:36;22.80;99.90
20504;DHT22;10410;51.046;6.980;2022-08-19T10:12:48;22.90;99.90
20504;DHT22;10410;51.046;6.980;2022-08-19T10:19:48;23.20;99.90
20504;DHT22;10410;51.046;6.980;2022-08-19T10:26:55;23.50;99.90
20504;DHT22;10410;51.046;6.980;2022-08-19T10:33:59;23.60;99.90
20504;DHT22;10410;51.046;6.980;2022-08-19T10:41:13;23.90;99.90
20504;DHT22;10410;51.046;6.980;2022-08-19T10:48:13;24.30;99.90
20504;DHT22;10410;51.046;6.980;2022-08-19T10:55:21;24.60;99.90
20504;DHT22;10410;51.046;6.980;2022-08-19T11:02:40;24.80;99.90
20504;DHT22;10410;51.046;6.980;2022-08-19T11:09:42;24.90;99.90
20504;DHT22;10410;51.046;6.980;2022-08-19T11:16:43;25.20;99.90
20504;DHT22;10410;51.046;6.980;2022-08-19T11:23:43;25.30;99.90
20504;DHT22;10410;51.046;6.980;2022-08-19T11:30:44;25.30;99.90
20504;DHT22;10410;51.046;6.980;2022-08-19T11:37:45;25.20;99.90
20504;DHT22;10410;51.046;6.980;2022-08-19T11:44:45;24.90;99.90
20504;DHT22;10410;51.046;6.980;2022-08-19T11:51:47;24.80;99.90
20504;DHT22;10410;51.046;6.980;2022-08-19T11:58:48;24.90;99.90
20504;DHT22;10410;51.046;6.980;2022-08-19T12:05:48;24.90;99.90
20504;DHT22;10410;51.046;6.980;2022-08-19T12:12:50;24.80;99.90
20504;DHT22;10410;51.046;6.980;2022-08-19T12:19:57;25.10;99.90
20504;DHT22;10410;51.046;6.980;2022-08-19T12:26:58;25.30;99.90
20504;DHT22;10410;51.046;6.980;2022-08-19T12:34:02;25.70;99.90
20504;DHT22;10410;51.046;6.980;2022-08-19T12:41:03;25.60;99.90
20504;DHT22;10410;51.046;6.980;2022-08-19T12:48:06;25.60;99.90
20504;DHT22;10410;51.046;6.980;2022-08-19T12:55:26;25.50;99.90
20504;DHT22;10410;51.046;6.980;2022-08-19T13:02:29;25.70;99.90
20504;DHT22;10410;51.046;6.980;2022-08-19T13:09:38;25.70;99.90
20504;DHT22;10410;51.046;6.980;2022-08-19T13:16:40;26.10;99.90
20504;DHT22;10410;51.046;6.980;2022-08-19T13:23:41;26.60;99.90
20504;DHT22;10410;51.046;6.980;2022-08-19T13:30:41;27.20;98.70
20504;DHT22;10410;51.046;6.980;2022-08-19T13:38:00;26.90;96.60
20504;DHT22;10410;51.046;6.980;2022-08-19T13:45:11;26.40;97.40
20504;DHT22;10410;51.046;6.980;2022-08-19T13:52:12;26.70;96.40
20504;DHT22;10410;51.046;6.980;2022-08-19T13:59:13;27.30;96.20
20504;DHT22;10410;51.046;6.980;2022-08-19T14:07:35;27.90;91.70
20504;DHT22;10410;51.046;6.980;2022-08-19T14:14:39;27.80;90.50
20504;DHT22;10410;51.046;6.980;2022-08-19T14:21:40;27.90;90.50
20504;DHT22;10410;51.046;6.980;2022-08-19T14:28:42;28.20;90.40
20504;DHT22;10410;51.046;6.980;2022-08-19T14:35:42;28.70;89.00
20504;DHT22;10410;51.046;6.980;2022-08-19T14:42:45;28.70;87.00
20504;DHT22;10410;51.046;6.980;2022-08-19T14:49:45;29.00;82.10
20504;DHT22;10410;51.046;6.980;2022-08-19T14:56:48;29.00;81.70
20504;DHT22;10410;51.046;6.980;2022-08-19T15:03:49;29.10;81.30
20504;DHT22;10410;51.046;6.980;2022-08-19T15:10:53;29.10;79.40
20504;DHT22;10410;51.046;6.980;2022-08-19T15:17:53;29.50;77.20
20504;DHT22;10410;51.046;6.980;2022-08-19T15:24:54;29.80;77.70
20504;DHT22;10410;51.046;6.980;2022-08-19T15:31:55;29.90;76.50
20504;DHT22;10410;51.046;6.980;2022-08-19T15:38:58;30.00;74.60
20504;DHT22;10410;51.046;6.980;2022-08-19T15:45:59;30.00;72.90
20504;DHT22;10410;51.046;6.980;2022-08-19T15:53:03;29.80;72.50
20504;DHT22;10410;51.046;6.980;2022-08-19T16:00:04;29.80;71.20
20504;DHT22;10410;51.046;6.980;2022-08-19T16:07:25;29.80;72.00
20504;DHT22;10410;51.046;6.980;2022-08-19T16:14:27;29.50;72.30
20504;DHT22;10410;51.046;6.980;2022-08-19T16:21:29;29.10;74.30
20504;DHT22;10410;51.046;6.980;2022-08-19T16:28:32;28.40;76.90
20504;DHT22;10410;51.046;6.980;2022-08-19T16:35:33;27.80;79.70
20504;DHT22;10410;51.046;6.980;2022-08-19T16:42:33;27.40;81.50
20504;DHT22;10410;51.046;6.980;2022-08-19T16:49:33;26.90;84.80
20504;DHT22;10410;51.046;6.980;2022-08-19T16:56:54;26.40;86.30
20504;DHT22;10410;51.046;6.980;2022-08-19T17:03:55;26.20;89.10
20504;DHT22;10410;51.046;6.980;2022-08-19T17:10:56;25.80;90.50
20504;DHT22;10410;51.046;6.980;2022-08-19T17:18:17;25.60;91.30
20504;DHT22;10410;51.046;6.980;2022-08-19T17:25:19;25.50;92.60
20504;DHT22;10410;51.046;6.980;2022-08-19T17:32:19;25.30;93.20
20504;DHT22;10410;51.046;6.980;2022-08-19T17:39:25;25.10;94.60
20504;DHT22;10410;51.046;6.980;2022-08-19T17:46:25;25.00;94.90
20504;DHT22;10410;51.046;6.980;2022-08-19T17:53:26;24.90;95.10
20504;DHT22;10410;51.046;6.980;2022-08-19T18:00:27;24.90;95.30
20504;DHT22;10410;51.046;6.980;2022-08-19T18:07:27;25.00;96.00
20504;DHT22;10410;51.046;6.980;2022-08-19T18:14:36;24.90;96.20
20504;DHT22;10410;51.046;6.980;2022-08-19T18:21:36;24.80;97.20
20504;DHT22;10410;51.046;6.980;2022-08-19T18:28:38;24.60;97.80
20504;DHT22;10410;51.046;6.980;2022-08-19T18:35:49;24.50;98.40
20504;DHT22;10410;51.046;6.980;2022-08-19T18:42:52;24.40;99.10
20504;DHT22;10410;51.046;6.980;2022-08-19T18:50:12;24.20;99.60
20504;DHT22;10410;51.046;6.980;2022-08-19T18:57:13;24.10;99.90
20504;DHT22;10410;51.046;6.980;2022-08-19T19:04:17;23.90;99.90
20504;DHT22;10410;51.046;6.980;2022-08-19T19:11:32;23.80;99.90
20504;DHT22;10410;51.046;6.980;2022-08-19T19:18:33;23.70;99.90
20504;DHT22;10410;51.046;6.980;2022-08-19T19:25:33;23.60;99.90
20504;DHT22;10410;51.046;6.980;2022-08-19T19:32:50;23.50;99.90
20504;DHT22;10410;51.046;6.980;2022-08-19T19:39:55;23.40;99.90
20504;DHT22;10410;51.046;6.980;2022-08-19T19:46:56;23.20;99.90
20504;DHT22;10410;51.046;6.980;2022-08-19T19:53:58;23.10;99.90
20504;DHT22;10410;51.046;6.980;2022-08-19T20:00:59;23.00;99.90
20504;DHT22;10410;51.046;6.980;2022-08-19T20:08:09;23.00;99.90
20504;DHT22;10410;51.046;6.980;2022-08-19T20:15:28;22.90;99.90
20504;DHT22;10410;51.046;6.980;2022-08-19T20:22:30;22.90;99.90
20504;DHT22;10410;51.046;6.980;2022-08-19T20:29:33;22.80;99.90
20504;DHT22;10410;51.046;6.980;2022-08-19T20:36:40;22.70;99.90
20504;DHT22;10410;51.046;6.980;2022-08-19T20:43:40;22.60;99.90
20504;DHT22;10410;51.046;6.980;2022-08-19T20:50:40;22.40;99.90
20504;DHT22;10410;51.046;6.980;2022-08-19T20:57:41;22.20;99.90
20504;DHT22;10410;51.046;6.980;2022-08-19T21:04:41;22.10;99.90
20504;DHT22;10410;51.046;6.980;2022-08-19T21:11:42;21.90;99.90
20504;DHT22;10410;51.046;6.980;2022-08-19T21:18:43;21.90;99.90
20504;DHT22;10410;51.046;6.980;2022-08-19T21:25:44;21.90;99.90
20504;DHT22;10410;51.046;6.980;2022-08-19T21:32:54;21.80;99.90
20504;DHT22;10410;51.046;6.980;2022-08-19T21:39:54;21.60;99.90
20504;DHT22;10410;51.046;6.980;2022-08-19T21:46:55;21.50;99.90
20504;DHT22;10410;51.046;6.980;2022-08-19T21:53:56;21.50;99.90
20504;DHT22;10410;51.046;6.980;2022-08-19T22:00:58;21.40;99.90
20504;DHT22;10410;51.046;6.980;2022-08-19T22:08:00;21.30;99.90
20504;DHT22;10410;51.046;6.980;2022-08-19T22:15:01;21.20;99.90
20504;DHT22;10410;51.046;6.980;2022-08-19T22:22:02;21.10;99.90
20504;DHT22;10410;51.046;6.980;2022-08-19T22:29:02;21.00;99.90
20504;DHT22;10410;51.046;6.980;2022-08-19T22:36:05;21.00;99.90
20504;DHT22;10410;51.046;6.980;2022-08-19T22:43:11;21.00;99.90
20504;DHT22;10410;51.046;6.980;2022-08-19T22:50:14;20.90;99.90
20504;DHT22;10410;51.046;6.980;2022-08-19T22:57:15;20.90;99.90
20504;DHT22;10410;51.046;6.980;2022-08-19T23:04:18;20.90;99.90
20504;DHT22;10410;51.046;6.980;2022-08-19T23:11:18;20.90;99.90
20504;DHT22;10410;51.046;6.980;2022-08-19T23:18:19;20.80;99.90
20504;DHT22;10410;51.046;6.980;2022-08-19T23:25:23;20.80;99.90
20504;DHT22;10410;51.046;6.980;2022-08-19T23:32:23;20.80;99.90
20504;DHT22;10410;51.046;6.980;2022-08-19T23:39:24;20.80;99.90
20504;DHT22;10410;51.046;6.980;2022-08-19T23:46:28;20.80;99.90
20504;DHT22;10410;51.046;6.980;2022-08-19T23:53:29;20.70;99.90
